createdAt,value
2019-05-01T00:00:49.319Z,9.80
2019-05-01T00:03:23.033Z,9.50
2019-05-01T00:05:56.382Z,9.60
2019-05-01T00:08:28.452Z,9.75
2019-05-01T00:11:00.463Z,10.68
2019-05-01T00:13:32.652Z,15.03
2019-05-01T00:16:05.864Z,10.55
2019-05-01T00:18:37.928Z,10.30
2019-05-01T00:21:09.930Z,10.05
2019-05-01T00:23:42.142Z,10.25
2019-05-01T00:26:14.573Z,10.25
2019-05-01T00:28:46.915Z,10.03
2019-05-01T00:31:19.972Z,9.85
2019-05-01T00:33:52.127Z,9.70
2019-05-01T00:36:24.305Z,8.83
2019-05-01T00:38:57.586Z,9.85
2019-05-01T00:41:29.864Z,9.35
2019-05-01T00:44:02.151Z,10.05
2019-05-01T00:46:34.301Z,9.63
2019-05-01T00:49:06.588Z,9.83
2019-05-01T00:51:38.558Z,11.40
2019-05-01T00:54:10.595Z,10.40
2019-05-01T00:56:43.967Z,10.50
2019-05-01T00:59:17.560Z,12.93
2019-05-01T01:01:50.985Z,14.97
2019-05-01T01:04:23.202Z,11.12
2019-05-01T01:06:55.385Z,10.95
2019-05-01T01:09:27.733Z,10.25
2019-05-01T01:11:59.996Z,10.35
2019-05-01T01:14:32.141Z,11.15
2019-05-01T01:17:04.880Z,10.80
2019-05-01T01:19:37.231Z,10.63
2019-05-01T01:22:09.723Z,10.73
2019-05-01T01:24:42.038Z,9.75
2019-05-01T01:27:14.129Z,10.25
2019-05-01T01:29:46.735Z,10.23
2019-05-01T01:32:18.804Z,10.00
2019-05-01T01:34:50.872Z,10.18
2019-05-01T01:37:23.124Z,10.18
2019-05-01T01:39:55.273Z,11.15
2019-05-01T01:42:27.813Z,10.28
2019-05-01T01:45:02.607Z,9.60
2019-05-01T01:47:36.021Z,9.48
2019-05-01T01:50:08.890Z,10.10
2019-05-01T01:52:40.876Z,9.90
2019-05-01T01:55:13.135Z,9.88
2019-05-01T01:57:45.263Z,9.33
2019-05-01T02:00:18.706Z,9.77
2019-05-01T02:02:52.059Z,10.28
2019-05-01T02:05:25.674Z,10.45
2019-05-01T02:07:58.152Z,10.90
2019-05-01T02:10:42.370Z,9.13
2019-05-01T02:13:03.851Z,10.63
2019-05-01T02:15:36.084Z,11.10
2019-05-01T02:18:09.409Z,10.90
2019-05-01T02:20:41.517Z,10.63
2019-05-01T02:23:13.800Z,10.95
2019-05-01T02:25:46.335Z,10.40
2019-05-01T02:28:19.848Z,10.35
2019-05-01T02:30:54.299Z,10.82
2019-05-01T02:33:26.485Z,11.28
2019-05-01T02:35:58.756Z,11.12
2019-05-01T02:38:31.098Z,10.77
2019-05-01T02:41:03.697Z,10.60
2019-05-01T02:43:37.600Z,10.28
2019-05-01T02:46:09.731Z,10.05
2019-05-01T02:48:44.602Z,10.60
2019-05-01T02:51:16.850Z,10.15
2019-05-01T02:53:49.072Z,10.28
2019-05-01T02:56:22.743Z,11.15
2019-05-01T02:58:55.090Z,11.57
2019-05-01T03:01:44.369Z,11.45
2019-05-01T03:04:00.870Z,12.20
2019-05-01T03:06:33.194Z,11.20
2019-05-01T03:09:08.157Z,10.88
2019-05-01T03:11:41.471Z,10.70
2019-05-01T03:14:15.989Z,10.82
2019-05-01T03:16:48.880Z,10.82
2019-05-01T03:19:22.797Z,11.88
2019-05-01T03:21:56.308Z,12.50
2019-05-01T03:24:29.615Z,10.58
2019-05-01T03:27:01.818Z,11.10
2019-05-01T03:29:34.222Z,11.65
2019-05-01T03:32:17.917Z,10.72
2019-05-01T03:34:40.063Z,11.12
2019-05-01T03:37:12.171Z,11.93
2019-05-01T03:39:44.340Z,10.25
2019-05-01T03:42:16.533Z,11.53
2019-05-01T03:44:48.796Z,10.98
2019-05-01T03:47:21.106Z,10.53
2019-05-01T03:49:53.136Z,12.53
2019-05-01T03:52:25.292Z,10.50
2019-05-01T03:54:57.471Z,10.80
2019-05-01T03:57:29.581Z,11.53
2019-05-01T04:00:01.900Z,10.80
2019-05-01T04:02:36.591Z,10.13
2019-05-01T04:05:08.796Z,9.48
2019-05-01T04:07:40.938Z,9.78
2019-05-01T04:10:14.014Z,10.13
2019-05-01T04:12:46.214Z,10.95
2019-05-01T04:15:18.280Z,9.80
2019-05-01T04:17:51.639Z,10.13
2019-05-01T04:20:24.084Z,10.32
2019-05-01T04:22:56.042Z,9.93
2019-05-01T04:25:28.109Z,10.40
2019-05-01T04:28:01.849Z,10.43
2019-05-01T04:30:35.785Z,10.43
2019-05-01T04:33:09.556Z,10.20
2019-05-01T04:35:43.159Z,10.75
2019-05-01T04:38:15.441Z,10.30
2019-05-01T04:40:47.899Z,11.20
2019-05-01T04:43:20.132Z,10.88
2019-05-01T04:45:52.292Z,11.00
2019-05-01T04:48:24.604Z,10.65
2019-05-01T04:50:57.777Z,10.98
2019-05-01T04:53:30.054Z,10.58
2019-05-01T04:56:02.388Z,11.05
2019-05-01T04:58:34.395Z,10.93
2019-05-01T05:01:06.572Z,10.58
2019-05-01T05:03:38.782Z,11.00
2019-05-01T05:06:10.801Z,11.10
2019-05-01T05:08:43.871Z,11.05
2019-05-01T05:11:17.411Z,11.60
2019-05-01T05:13:50.709Z,11.38
2019-05-01T05:16:24.165Z,11.53
2019-05-01T05:18:56.307Z,11.45
2019-05-01T05:21:28.442Z,12.00
2019-05-01T05:24:00.472Z,11.33
2019-05-01T05:26:32.715Z,11.53
2019-05-01T05:29:04.749Z,11.95
2019-05-01T05:31:37.940Z,11.97
2019-05-01T05:34:10.503Z,11.55
2019-05-01T05:36:43.049Z,12.00
2019-05-01T05:39:16.754Z,11.78
2019-05-01T05:41:49.020Z,11.50
2019-05-01T05:44:21.301Z,12.05
2019-05-01T05:46:53.448Z,12.03
2019-05-01T05:49:26.138Z,12.03
2019-05-01T05:51:59.735Z,11.78
2019-05-01T05:54:33.343Z,11.95
2019-05-01T05:57:06.823Z,11.90
2019-05-01T05:59:40.438Z,12.35
2019-05-01T06:02:14.246Z,13.40
2019-05-01T06:04:48.255Z,12.33
2019-05-01T06:07:21.964Z,12.73
2019-05-01T06:09:57.506Z,12.93
2019-05-01T06:12:31.107Z,13.03
2019-05-01T06:15:06.370Z,13.80
2019-05-01T06:17:40.045Z,14.60
2019-05-01T06:20:13.510Z,12.93
2019-05-01T06:22:46.941Z,13.40
2019-05-01T06:25:22.824Z,12.90
2019-05-01T06:27:54.143Z,13.48
2019-05-01T06:30:26.492Z,13.45
2019-05-01T06:33:04.189Z,12.70
2019-05-01T06:35:33.991Z,13.95
2019-05-01T06:38:09.428Z,14.05
2019-05-01T06:40:42.588Z,13.20
2019-05-01T06:43:20.141Z,13.53
2019-05-01T06:45:54.065Z,12.80
2019-05-01T06:48:27.597Z,13.32
2019-05-01T06:51:01.036Z,13.05
2019-05-01T06:53:36.079Z,12.70
2019-05-01T06:56:06.776Z,13.30
2019-05-01T06:58:38.787Z,14.60
2019-05-01T07:01:13.737Z,13.18
2019-05-01T07:03:46.978Z,16.05
2019-05-01T07:06:18.063Z,15.63
2019-05-01T07:08:50.285Z,15.20
2019-05-01T07:11:22.398Z,14.25
2019-05-01T07:13:55.932Z,14.80
2019-05-01T07:16:28.038Z,14.93
2019-05-01T07:19:05.864Z,14.07
2019-05-01T07:21:34.944Z,13.38
2019-05-01T07:24:07.590Z,13.50
2019-05-01T07:26:43.784Z,13.57
2019-05-01T07:29:14.926Z,14.58
2019-05-01T07:31:47.304Z,12.95
2019-05-01T07:34:21.621Z,12.75
2019-05-01T07:36:54.372Z,12.30
2019-05-01T07:39:26.654Z,14.13
2019-05-01T07:42:00.062Z,12.78
2019-05-01T07:44:33.875Z,12.85
2019-05-01T07:47:08.339Z,11.18
2019-05-01T07:49:43.425Z,11.75
2019-05-01T07:52:17.094Z,11.28
2019-05-01T07:54:49.004Z,11.40
2019-05-01T07:57:23.133Z,11.88
2019-05-01T07:59:58.418Z,11.38
2019-05-01T08:02:30.964Z,11.45
2019-05-01T08:05:04.969Z,10.35
2019-05-01T08:07:35.432Z,10.15
2019-05-01T08:10:08.682Z,10.72
2019-05-01T08:12:40.856Z,10.08
2019-05-01T08:15:13.004Z,10.63
2019-05-01T08:17:48.792Z,10.13
2019-05-01T08:20:20.997Z,10.40
2019-05-01T08:22:53.167Z,10.95
2019-05-01T08:25:28.650Z,9.78
2019-05-01T08:28:00.269Z,10.80
2019-05-01T08:30:34.496Z,10.28
2019-05-01T08:33:09.785Z,10.73
2019-05-01T08:35:41.444Z,9.80
2019-05-01T08:38:14.256Z,9.83
2019-05-01T08:40:50.603Z,10.85
2019-05-01T08:43:19.999Z,12.65
2019-05-01T08:45:53.521Z,12.58
2019-05-01T08:48:30.715Z,9.55
2019-05-01T08:51:00.569Z,9.40
2019-05-01T08:53:32.752Z,14.83
2019-05-01T08:56:05.833Z,18.02
2019-05-01T08:58:37.965Z,13.20
2019-05-01T09:01:10.803Z,12.17
2019-05-01T09:03:43.918Z,9.63
2019-05-01T09:06:16.025Z,11.48
2019-05-01T09:08:48.510Z,13.07
2019-05-01T09:11:20.668Z,15.00
2019-05-01T09:13:54.579Z,12.82
2019-05-01T09:16:28.457Z,11.50
2019-05-01T09:18:59.806Z,11.43
2019-05-01T09:21:33.318Z,11.73
2019-05-01T09:24:05.550Z,10.50
2019-05-01T09:26:38.811Z,10.03
2019-05-01T09:29:16.147Z,10.85
2019-05-01T09:31:45.678Z,11.05
2019-05-01T09:34:20.726Z,13.28
2019-05-01T09:36:52.528Z,17.70
2019-05-01T09:39:24.941Z,13.70
2019-05-01T09:41:57.285Z,8.95
2019-05-01T09:44:29.446Z,8.90
2019-05-01T09:47:01.683Z,9.37
2019-05-01T09:49:33.865Z,9.53
2019-05-01T09:52:08.303Z,9.95
2019-05-01T09:54:42.928Z,8.88
2019-05-01T09:57:15.523Z,9.60
2019-05-01T09:59:48.777Z,15.60
2019-05-01T10:02:21.030Z,11.15
2019-05-01T10:04:53.273Z,20.55
2019-05-01T10:07:28.829Z,11.57
2019-05-01T10:09:59.034Z,9.78
2019-05-01T10:12:31.384Z,9.90
2019-05-01T10:15:03.613Z,9.18
2019-05-01T10:17:35.739Z,9.60
2019-05-01T10:20:08.917Z,10.58
2019-05-01T10:22:41.016Z,10.08
2019-05-01T10:25:13.643Z,10.25
2019-05-01T10:27:48.829Z,13.43
2019-05-01T10:30:23.642Z,18.60
2019-05-01T10:32:57.889Z,14.15
2019-05-01T10:35:41.994Z,16.57
2019-05-01T10:38:09.319Z,12.65
2019-05-01T10:40:38.817Z,11.63
2019-05-01T10:43:11.150Z,11.90
2019-05-01T10:45:43.515Z,11.95
2019-05-01T10:48:16.813Z,11.33
2019-05-01T10:50:48.902Z,12.18
2019-05-01T10:53:21.128Z,10.93
2019-05-01T10:55:53.310Z,11.28
2019-05-01T10:58:25.504Z,11.38
2019-05-01T11:00:58.911Z,21.30
2019-05-01T11:03:32.125Z,14.73
2019-05-01T11:06:04.316Z,17.05
2019-05-01T11:08:36.520Z,15.08
2019-05-01T11:11:08.832Z,15.23
2019-05-01T11:13:41.194Z,13.03
2019-05-01T11:16:13.444Z,12.88
2019-05-01T11:18:45.937Z,12.07
2019-05-01T11:21:18.220Z,12.23
2019-05-01T11:23:50.366Z,13.35
2019-05-01T11:26:22.650Z,11.63
2019-05-01T11:28:55.275Z,12.93
2019-05-01T11:31:28.819Z,12.28
2019-05-01T11:34:02.392Z,13.50
2019-05-01T11:36:35.807Z,11.23
2019-05-01T11:39:09.873Z,11.90
2019-05-01T11:41:44.500Z,11.68
2019-05-01T11:44:16.632Z,11.47
2019-05-01T11:46:48.797Z,12.98
2019-05-01T11:49:21.057Z,13.43
2019-05-01T11:51:53.248Z,14.13
2019-05-01T11:54:25.400Z,18.60
2019-05-01T11:56:57.876Z,15.03
2019-05-01T11:59:32.739Z,14.30
2019-05-01T12:02:04.490Z,15.00
2019-05-01T12:04:37.952Z,14.45
2019-05-01T12:07:10.205Z,15.43
2019-05-01T12:09:42.490Z,17.23
2019-05-01T12:12:16.558Z,17.20
2019-05-01T12:14:48.815Z,17.77
2019-05-01T12:17:22.813Z,17.23
2019-05-01T12:19:55.123Z,17.02
2019-05-01T12:22:27.723Z,19.25
2019-05-01T12:24:59.962Z,17.65
2019-05-01T12:27:32.346Z,22.13
2019-05-01T12:30:05.451Z,18.62
2019-05-01T12:32:37.775Z,17.77
2019-05-01T12:35:09.837Z,16.15
2019-05-01T12:37:43.132Z,18.60
2019-05-01T12:40:16.836Z,17.70
2019-05-01T12:42:49.377Z,20.07
2019-05-01T12:45:22.956Z,14.83
2019-05-01T12:47:56.368Z,15.10
2019-05-01T12:50:28.561Z,15.50
2019-05-01T12:53:02.124Z,16.95
2019-05-01T12:55:35.501Z,20.70
2019-05-01T12:58:07.789Z,21.37
2019-05-01T13:00:42.525Z,19.40
2019-05-01T13:03:14.716Z,16.50
2019-05-01T13:05:46.790Z,21.42
2019-05-01T13:08:18.814Z,25.52
2019-05-01T13:10:51.721Z,24.05
2019-05-01T13:13:23.932Z,22.77
2019-05-01T13:15:56.002Z,18.40
2019-05-01T13:18:28.197Z,18.40
2019-05-01T13:21:00.391Z,17.27
2019-05-01T13:23:32.727Z,21.97
2019-05-01T13:26:06.233Z,20.17
2019-05-01T13:28:40.359Z,24.13
2019-05-01T13:31:13.758Z,22.52
2019-05-01T13:33:45.920Z,23.67
2019-05-01T13:36:18.081Z,18.12
2019-05-01T13:38:51.455Z,16.10
2019-05-01T13:41:23.634Z,16.85
2019-05-01T13:43:55.909Z,15.08
2019-05-01T13:46:29.171Z,14.58
2019-05-01T13:49:01.680Z,14.38
2019-05-01T13:51:34.925Z,14.07
2019-05-01T13:54:08.280Z,13.43
2019-05-01T13:56:40.299Z,13.90
2019-05-01T13:59:13.244Z,25.70
2019-05-01T14:01:45.465Z,15.67
2019-05-01T14:04:18.006Z,20.43
2019-05-01T14:06:50.084Z,15.50
2019-05-01T14:09:23.924Z,13.50
2019-05-01T14:11:56.240Z,13.55
2019-05-01T14:14:28.522Z,12.80
2019-05-01T14:17:00.594Z,13.38
2019-05-01T14:19:33.525Z,20.97
2019-05-01T14:22:07.969Z,16.13
2019-05-01T14:24:41.638Z,16.02
2019-05-01T14:27:15.771Z,16.93
2019-05-01T14:29:47.454Z,13.65
2019-05-01T14:32:19.618Z,12.90
2019-05-01T14:34:51.746Z,12.95
2019-05-01T14:37:29.722Z,15.75
2019-05-01T14:39:58.031Z,14.20
2019-05-01T14:42:30.204Z,13.62
2019-05-01T14:45:02.575Z,12.15
2019-05-01T14:47:34.756Z,12.33
2019-05-01T14:50:08.599Z,11.90
2019-05-01T14:52:40.809Z,10.72
2019-05-01T14:55:13.132Z,11.12
2019-05-01T14:57:45.138Z,10.68
2019-05-01T15:00:17.326Z,11.18
2019-05-01T15:02:50.515Z,11.55
2019-05-01T15:05:22.630Z,11.80
2019-05-01T15:07:54.820Z,17.98
2019-05-01T15:10:29.250Z,13.72
2019-05-01T15:13:02.943Z,14.20
2019-05-01T15:15:37.066Z,14.53
2019-05-01T15:18:10.713Z,12.90
2019-05-01T15:20:43.058Z,12.47
2019-05-01T15:23:15.202Z,13.20
2019-05-01T15:25:47.321Z,12.87
2019-05-01T15:28:19.300Z,12.55
2019-05-01T15:30:53.216Z,14.18
2019-05-01T15:33:25.299Z,13.05
2019-05-01T15:35:57.463Z,12.28
2019-05-01T15:38:30.091Z,11.77
2019-05-01T15:41:04.694Z,9.80
2019-05-01T15:43:41.035Z,9.20
2019-05-01T15:46:15.619Z,9.13
2019-05-01T15:48:47.945Z,10.30
2019-05-01T15:51:20.076Z,11.57
2019-05-01T15:53:52.316Z,9.08
2019-05-01T15:56:24.372Z,10.00
2019-05-01T15:58:56.577Z,7.42
2019-05-01T16:01:28.859Z,7.33
2019-05-01T16:04:01.125Z,7.27
2019-05-01T16:06:33.242Z,6.72
2019-05-01T16:09:06.667Z,6.67
2019-05-01T16:11:40.604Z,7.35
2019-05-01T16:14:12.916Z,8.08
2019-05-01T16:16:45.355Z,16.43
2019-05-01T16:19:17.690Z,7.40
2019-05-01T16:21:50.505Z,7.00
2019-05-01T16:24:22.796Z,6.40
2019-05-01T16:26:55.175Z,6.50
2019-05-01T16:29:27.463Z,6.17
2019-05-01T16:31:59.535Z,5.75
2019-05-01T16:34:31.696Z,5.62
2019-05-01T16:37:03.860Z,9.10
2019-05-01T16:39:37.183Z,9.97
2019-05-01T16:42:09.535Z,7.83
2019-05-01T16:44:41.699Z,8.05
2019-05-01T16:47:14.363Z,11.80
2019-05-01T16:49:46.531Z,14.38
2019-05-01T16:52:19.980Z,18.35
2019-05-01T16:54:59.027Z,9.03
2019-05-01T16:57:26.186Z,6.90
2019-05-01T16:59:58.364Z,7.10
2019-05-01T17:02:32.029Z,6.65
2019-05-01T17:05:05.487Z,5.70
2019-05-01T17:07:38.809Z,6.67
2019-05-01T17:10:12.222Z,10.50
2019-05-01T17:12:45.747Z,13.43
2019-05-01T17:15:20.234Z,16.57
2019-05-01T17:17:52.736Z,5.90
2019-05-01T17:20:24.941Z,5.42
2019-05-01T17:22:57.111Z,5.95
2019-05-01T17:25:29.581Z,5.65
2019-05-01T17:28:08.200Z,5.42
2019-05-01T17:30:39.139Z,5.83
2019-05-01T17:33:20.090Z,6.08
2019-05-01T17:35:45.095Z,5.50
2019-05-01T17:38:17.249Z,11.10
2019-05-01T17:40:52.038Z,6.50
2019-05-01T17:43:23.016Z,8.03
2019-05-01T17:45:55.295Z,7.80
2019-05-01T17:48:28.996Z,5.92
2019-05-01T17:51:01.936Z,5.97
2019-05-01T17:53:34.078Z,33.42
2019-05-01T17:56:09.923Z,8.10
2019-05-01T17:58:39.886Z,28.50
2019-05-01T18:01:13.339Z,8.85
2019-05-01T18:03:46.683Z,6.15
2019-05-01T18:06:19.949Z,6.20
2019-05-01T18:09:02.490Z,6.50
2019-05-01T18:11:25.802Z,6.33
2019-05-01T18:13:57.966Z,5.95
2019-05-01T18:16:31.154Z,6.03
2019-05-01T18:19:03.635Z,5.58
2019-05-01T18:21:35.732Z,6.00
2019-05-01T18:24:09.234Z,5.95
2019-05-01T18:26:43.427Z,5.78
2019-05-01T18:29:18.793Z,7.75
2019-05-01T18:31:51.175Z,8.60
2019-05-01T18:34:23.326Z,12.63
2019-05-01T18:36:59.895Z,16.17
2019-05-01T18:39:31.814Z,6.67
2019-05-01T18:42:05.069Z,5.60
2019-05-01T18:44:37.255Z,5.70
2019-05-01T18:47:09.405Z,5.70
2019-05-01T18:49:41.748Z,5.57
2019-05-01T18:52:14.152Z,5.97
2019-05-01T18:54:46.316Z,5.83
2019-05-01T18:57:18.551Z,5.70
2019-05-01T18:59:51.141Z,5.78
2019-05-01T19:02:25.053Z,6.15
2019-05-01T19:04:57.240Z,5.80
2019-05-01T19:07:29.884Z,6.30
2019-05-01T19:10:02.270Z,6.53
2019-05-01T19:12:34.525Z,9.35
2019-05-01T19:15:06.960Z,7.42
2019-05-01T19:17:39.282Z,7.65
2019-05-01T19:20:14.194Z,6.40
2019-05-01T19:22:46.330Z,14.70
2019-05-01T19:25:18.831Z,10.58
2019-05-01T19:27:51.406Z,9.83
2019-05-01T19:30:24.103Z,10.13
2019-05-01T19:32:57.282Z,6.50
2019-05-01T19:35:33.964Z,6.57
2019-05-01T19:38:03.764Z,14.10
2019-05-01T19:40:36.576Z,6.87
2019-05-01T19:43:08.659Z,15.85
2019-05-01T19:45:41.010Z,7.95
2019-05-01T19:48:13.237Z,6.80
2019-05-01T19:50:48.443Z,6.83
2019-05-01T19:53:18.890Z,6.72
2019-05-01T19:55:52.118Z,6.62
2019-05-01T19:58:24.192Z,7.12
2019-05-01T20:00:57.959Z,7.25
2019-05-01T20:03:30.563Z,6.60
2019-05-01T20:06:05.290Z,6.63
2019-05-01T20:08:37.317Z,7.40
2019-05-01T20:11:09.965Z,7.58
2019-05-01T20:13:42.665Z,7.60
2019-05-01T20:16:16.644Z,7.97
2019-05-01T20:18:48.900Z,8.95
2019-05-01T20:21:21.504Z,8.63
2019-05-01T20:23:53.758Z,8.58
2019-05-01T20:26:26.924Z,8.75
2019-05-01T20:29:00.461Z,8.08
2019-05-01T20:31:32.937Z,7.90
2019-05-01T20:34:05.437Z,20.67
2019-05-01T20:36:37.466Z,18.67
2019-05-01T20:39:10.253Z,17.27
2019-05-01T20:41:42.505Z,10.70
2019-05-01T20:44:23.201Z,7.97
2019-05-01T20:46:48.258Z,7.50
2019-05-01T20:49:20.343Z,9.65
2019-05-01T20:51:52.882Z,7.70
2019-05-01T20:54:26.062Z,8.17
2019-05-01T20:56:59.489Z,8.70
2019-05-01T20:59:35.211Z,7.72
2019-05-01T21:02:08.110Z,7.53
2019-05-01T21:04:40.198Z,7.30
2019-05-01T21:07:15.557Z,7.78
2019-05-01T21:09:56.995Z,7.50
2019-05-01T21:12:22.448Z,7.40
2019-05-01T21:14:54.532Z,8.00
2019-05-01T21:17:26.832Z,8.08
2019-05-01T21:19:58.870Z,8.10
2019-05-01T21:22:33.289Z,8.25
2019-05-01T21:25:04.928Z,8.28
2019-05-01T21:27:37.074Z,8.73
2019-05-01T21:30:10.549Z,8.83
2019-05-01T21:32:44.372Z,17.20
2019-05-01T21:35:16.065Z,11.83
2019-05-01T21:37:48.148Z,12.00
2019-05-01T21:40:22.939Z,12.10
2019-05-01T21:42:55.886Z,12.73
2019-05-01T21:45:28.019Z,12.53
2019-05-01T21:48:00.267Z,11.15
2019-05-01T21:50:33.564Z,11.70
2019-05-01T21:53:07.229Z,13.70
2019-05-01T21:55:39.364Z,18.10
2019-05-01T21:58:11.437Z,13.20
2019-05-01T22:00:43.715Z,12.00
2019-05-01T22:03:21.575Z,11.95
2019-05-01T22:05:52.380Z,11.40
2019-05-01T22:08:25.086Z,11.63
2019-05-01T22:10:57.553Z,10.88
2019-05-01T22:13:30.891Z,10.73
2019-05-01T22:16:04.327Z,10.90
2019-05-01T22:18:38.230Z,10.67
2019-05-01T22:21:12.143Z,10.35
2019-05-01T22:23:48.959Z,10.40
2019-05-01T22:26:19.532Z,11.28
2019-05-01T22:28:54.887Z,12.13
2019-05-01T22:31:27.714Z,13.43
2019-05-01T22:34:01.081Z,13.70
2019-05-01T22:36:33.199Z,15.08
2019-05-01T22:39:07.324Z,10.90
2019-05-01T22:41:40.831Z,11.67
2019-05-01T22:44:17.939Z,11.38
2019-05-01T22:46:46.721Z,10.93
2019-05-01T22:49:18.868Z,13.18
2019-05-01T22:51:53.811Z,14.55
2019-05-01T22:54:26.542Z,14.98
2019-05-01T22:56:58.683Z,16.70
2019-05-01T22:59:30.822Z,17.30
2019-05-01T23:02:04.325Z,17.65
2019-05-01T23:04:36.430Z,18.52
2019-05-01T23:07:11.749Z,19.85
2019-05-01T23:09:42.213Z,19.12
2019-05-01T23:12:15.449Z,22.85
2019-05-01T23:14:47.760Z,18.92
2019-05-01T23:17:21.230Z,20.17
2019-05-01T23:19:54.619Z,21.65
2019-05-01T23:22:27.492Z,24.60
2019-05-01T23:24:59.884Z,23.27
2019-05-01T23:27:31.963Z,24.15
2019-05-01T23:30:05.781Z,24.57
2019-05-01T23:32:37.866Z,24.87
2019-05-01T23:35:10.118Z,22.45
2019-05-01T23:37:42.120Z,18.67
2019-05-01T23:40:15.516Z,18.20
2019-05-01T23:42:52.595Z,17.62
2019-05-01T23:45:22.311Z,16.77
2019-05-01T23:47:54.723Z,15.68
2019-05-01T23:50:26.812Z,16.10
2019-05-01T23:52:58.892Z,15.48
2019-05-01T23:55:31.123Z,14.98
2019-05-01T23:58:03.254Z,16.20
